Terminal Aerodrome Forecast
Issued by NWS Charleston, WV

Current Version | Previous Version | Text Only | Print | Product List | Glossary Off
Versions: 1 2 3 4 5 6 7 8 9 10 11 12 13 14 15 16 17 18 19 20 21 22 23 24 25 26 27 28

000
FTUS41 KRLX 242300
TAFEKN
TAF
KEKN 242339Z 2500/2524 29005KT P6SM BKN250
     FM250300 00000KT P6SM BKN200
     FM250800 00000KT P6SM BKN110
     FM251600 06006KT P6SM BKN045
     FM251900 15008KT 6SM -SHRA OVC040
     FM252100 12008G12KT 4SM SHRA BR OVC030=

USA.gov is the U.S. government's official web portal to all federal, state and local government web resources and services.